createdAt,value
2022-12-08T00:01:44.872Z,4.10
2022-12-08T00:07:06.769Z,4.60
2022-12-08T00:12:12.579Z,5.40
2022-12-08T00:17:20.271Z,5.80
2022-12-08T00:22:23.304Z,5.10
2022-12-08T00:27:26.233Z,6.20
2022-12-08T00:32:29.238Z,4.90
2022-12-08T00:37:32.181Z,5.30
2022-12-08T00:42:35.210Z,4.40
2022-12-08T00:47:38.243Z,4.40
2022-12-08T00:52:41.172Z,4.60
2022-12-08T00:57:44.172Z,5.40
2022-12-08T01:02:47.152Z,5.20
2022-12-08T01:07:50.383Z,4.60
2022-12-08T01:12:53.386Z,5.00
2022-12-08T01:17:56.386Z,5.30
2022-12-08T01:22:59.336Z,4.70
2022-12-08T01:28:02.321Z,5.10
2022-12-08T01:33:05.662Z,3.30
2022-12-08T01:38:08.701Z,4.90
2022-12-08T01:43:21.498Z,4.60
2022-12-08T01:48:27.755Z,4.10
2022-12-08T01:53:33.422Z,4.70
2022-12-08T01:58:42.963Z,4.60
2022-12-08T02:04:02.154Z,4.90
2022-12-08T02:09:07.047Z,5.00
2022-12-08T02:14:14.121Z,4.70
2022-12-08T02:19:52.711Z,4.00
2022-12-08T02:25:10.885Z,4.40
2022-12-08T02:30:58.143Z,4.50
2022-12-08T02:36:25.253Z,5.60
2022-12-08T02:41:53.716Z,3.70
2022-12-08T02:47:05.344Z,4.40
2022-12-08T02:52:14.411Z,4.70
2022-12-08T02:57:48.410Z,5.20
2022-12-08T03:03:25.021Z,5.70
2022-12-08T03:09:14.357Z,5.30
2022-12-08T03:14:18.388Z,4.40
2022-12-08T03:19:27.798Z,4.20
2022-12-08T03:24:39.367Z,4.20
2022-12-08T03:29:42.944Z,5.60
2022-12-08T03:34:48.794Z,5.50
2022-12-08T03:39:51.741Z,5.40
2022-12-08T03:44:54.766Z,5.80
2022-12-08T03:49:57.676Z,6.10
2022-12-08T03:55:00.608Z,6.80
2022-12-08T04:00:06.920Z,6.00
2022-12-08T04:05:10.499Z,6.80
2022-12-08T04:10:13.535Z,7.40
2022-12-08T04:15:16.472Z,5.60
2022-12-08T04:20:19.367Z,6.20
2022-12-08T04:25:22.350Z,7.20
2022-12-08T04:30:25.455Z,7.20
2022-12-08T04:35:28.778Z,6.70
2022-12-08T04:40:32.102Z,6.10
2022-12-08T04:45:35.527Z,5.00
2022-12-08T04:50:42.237Z,5.60
2022-12-08T04:55:45.732Z,4.90
2022-12-08T05:00:49.135Z,4.00
2022-12-08T05:05:52.153Z,4.80
2022-12-08T05:11:03.653Z,5.10
2022-12-08T05:16:14.325Z,5.80
2022-12-08T05:21:17.353Z,5.50
2022-12-08T05:26:20.594Z,5.50
2022-12-08T05:31:23.885Z,6.00
2022-12-08T05:36:26.890Z,5.00
2022-12-08T05:41:30.060Z,5.20
2022-12-08T05:46:33.352Z,5.40
2022-12-08T05:51:36.457Z,6.30
2022-12-08T05:56:39.511Z,4.50
2022-12-08T06:01:42.892Z,4.70
2022-12-08T06:06:45.966Z,4.30
2022-12-08T06:11:48.958Z,4.20
2022-12-08T06:16:51.960Z,4.70
2022-12-08T06:21:54.995Z,4.30
2022-12-08T06:26:57.965Z,4.40
2022-12-08T06:32:00.960Z,3.70
2022-12-08T06:37:04.004Z,3.40
2022-12-08T06:42:25.850Z,3.10
2022-12-08T06:47:28.816Z,3.50
2022-12-08T06:52:32.046Z,3.60
2022-12-08T06:57:35.586Z,2.80
2022-12-08T07:02:39.035Z,3.70
2022-12-08T07:07:42.251Z,3.10
2022-12-08T07:12:45.734Z,3.00
2022-12-08T07:17:49.223Z,2.70
2022-12-08T07:22:53.218Z,2.90
2022-12-08T07:27:56.221Z,3.20
2022-12-08T07:32:59.157Z,3.20
2022-12-08T07:38:02.528Z,3.60
2022-12-08T07:43:05.481Z,6.10
2022-12-08T07:48:08.800Z,2.60
2022-12-08T07:53:12.478Z,2.30
2022-12-08T07:58:15.443Z,2.70
2022-12-08T08:03:18.904Z,4.50
2022-12-08T08:08:21.913Z,4.40
2022-12-08T08:13:24.954Z,2.90
2022-12-08T08:18:27.867Z,3.80
2022-12-08T08:23:31.006Z,5.00
2022-12-08T08:28:34.242Z,6.10
2022-12-08T08:33:37.323Z,4.60
2022-12-08T08:38:40.356Z,4.60
2022-12-08T08:43:43.288Z,4.40
2022-12-08T08:48:46.374Z,5.90
2022-12-08T08:53:49.910Z,4.40
2022-12-08T08:58:54.221Z,3.90
2022-12-08T09:03:57.562Z,4.00
2022-12-08T09:09:01.599Z,5.00
2022-12-08T09:14:04.561Z,3.70
2022-12-08T09:19:07.650Z,4.50
2022-12-08T09:24:15.721Z,4.70
2022-12-08T09:29:18.757Z,5.90
2022-12-08T09:34:21.745Z,7.10
2022-12-08T09:39:25.138Z,6.70
2022-12-08T09:45:12.018Z,6.60
2022-12-08T09:50:23.526Z,7.70
2022-12-08T09:55:53.928Z,6.00
2022-12-08T10:00:57.293Z,6.50
2022-12-08T10:06:39.366Z,5.70
2022-12-08T10:12:17.390Z,5.30
2022-12-08T10:17:29.396Z,5.20
2022-12-08T10:22:38.661Z,6.10
2022-12-08T10:27:44.579Z,5.30
2022-12-08T10:32:54.451Z,5.50
2022-12-08T10:38:04.173Z,5.80
2022-12-08T10:43:22.118Z,5.70
2022-12-08T10:48:31.310Z,7.90
2022-12-08T10:53:49.319Z,6.00
2022-12-08T10:59:13.267Z,6.30
2022-12-08T11:04:23.315Z,7.30
2022-12-08T11:09:48.874Z,5.70
2022-12-08T11:15:03.107Z,7.50
2022-12-08T11:20:08.978Z,8.00
2022-12-08T11:25:25.224Z,7.80
2022-12-08T11:30:35.958Z,7.60
2022-12-08T11:35:46.227Z,7.90
2022-12-08T11:41:15.584Z,7.90
2022-12-08T11:46:31.675Z,9.00
2022-12-08T11:51:42.421Z,8.50
2022-12-08T11:56:50.280Z,7.00
2022-12-08T12:01:53.723Z,7.10
2022-12-08T12:07:40.649Z,8.60
2022-12-08T12:13:10.192Z,9.50
2022-12-08T12:18:38.920Z,12.50
2022-12-08T12:23:49.104Z,8.80
2022-12-08T12:29:00.244Z,17.40
2022-12-08T12:34:16.939Z,14.50
2022-12-08T12:39:30.862Z,15.80
2022-12-08T12:44:33.715Z,25.90
2022-12-08T12:49:39.373Z,60.00
2022-12-08T12:54:51.540Z,52.90
2022-12-08T12:59:55.860Z,21.20
2022-12-08T13:05:26.481Z,30.30
2022-12-08T13:11:00.924Z,51.80
2022-12-08T13:16:18.537Z,70.80
2022-12-08T13:21:31.696Z,60.10
2022-12-08T13:26:44.545Z,41.70
2022-12-08T13:31:56.338Z,62.60
2022-12-08T13:37:11.357Z,26.00
2022-12-08T13:42:42.885Z,24.60
2022-12-08T13:48:30.165Z,29.80
2022-12-08T13:54:16.282Z,22.40
2022-12-08T13:59:34.046Z,12.40
2022-12-08T14:05:09.222Z,10.90
2022-12-08T14:10:03.779Z,14.60
2022-12-08T14:15:08.117Z,15.20
2022-12-08T14:20:46.348Z,16.40
2022-12-08T14:25:57.110Z,42.00
2022-12-08T14:31:01.039Z,23.40
2022-12-08T14:36:04.643Z,21.20
2022-12-08T14:41:12.014Z,18.40
2022-12-08T14:46:23.318Z,18.80
2022-12-08T14:51:33.110Z,13.90
2022-12-08T14:56:51.852Z,19.60
2022-12-08T15:02:15.700Z,26.60
2022-12-08T15:07:27.198Z,21.50
2022-12-08T15:12:31.985Z,18.90
2022-12-08T15:18:18.182Z,18.70
2022-12-08T15:23:31.344Z,18.20
2022-12-08T15:28:35.365Z,20.20
2022-12-08T15:33:39.493Z,30.90
2022-12-08T15:38:44.176Z,20.30
2022-12-08T15:43:47.440Z,22.10
2022-12-08T15:48:54.919Z,21.10
2022-12-08T15:54:00.957Z,25.00
2022-12-08T15:59:03.950Z,26.30
2022-12-08T16:04:47.749Z,42.50
2022-12-08T16:09:38.599Z,30.50
2022-12-08T16:20:16.932Z,34.80
2022-12-08T16:25:22.307Z,25.80
2022-12-08T16:30:26.037Z,23.90
2022-12-08T16:35:29.493Z,29.70
2022-12-08T16:40:32.482Z,27.00
2022-12-08T16:45:41.532Z,20.80
2022-12-08T16:50:47.670Z,33.00
2022-12-08T16:55:50.732Z,24.30
2022-12-08T17:00:53.763Z,24.00
2022-12-08T17:05:56.691Z,34.60
2022-12-08T17:11:08.498Z,25.70
2022-12-08T17:16:19.310Z,28.30
2022-12-08T17:21:22.415Z,27.80
2022-12-08T17:26:25.412Z,32.10
2022-12-08T17:31:31.092Z,30.50
2022-12-08T17:36:34.526Z,22.30
2022-12-08T17:41:37.771Z,21.10
2022-12-08T17:46:45.256Z,21.00
2022-12-08T17:51:55.233Z,29.40
2022-12-08T17:56:59.165Z,20.70
2022-12-08T18:02:02.768Z,21.30
2022-12-08T18:07:06.193Z,19.00
2022-12-08T18:12:09.269Z,17.70
2022-12-08T18:17:12.461Z,16.90
2022-12-08T18:22:16.160Z,16.70
2022-12-08T18:27:19.198Z,15.10
2022-12-08T18:32:23.921Z,16.30
2022-12-08T18:37:27.024Z,16.80
2022-12-08T18:42:30.148Z,17.00
2022-12-08T18:47:40.951Z,18.30
2022-12-08T18:52:45.772Z,15.40
2022-12-08T18:57:48.978Z,16.30
2022-12-08T19:02:52.117Z,15.70
2022-12-08T19:07:55.143Z,18.90
2022-12-08T19:12:58.145Z,15.50
2022-12-08T19:18:01.403Z,19.10
2022-12-08T19:23:04.403Z,18.40
2022-12-08T19:28:07.661Z,15.00
2022-12-08T19:33:10.689Z,16.00
2022-12-08T19:38:13.637Z,16.30
2022-12-08T19:43:39.315Z,16.10
2022-12-08T19:48:42.411Z,16.80
2022-12-08T19:53:47.772Z,15.00
2022-12-08T19:58:51.007Z,22.00
2022-12-08T20:03:54.010Z,22.50
2022-12-08T20:08:56.992Z,15.70
2022-12-08T20:13:59.985Z,16.10
2022-12-08T20:19:03.865Z,16.00
2022-12-08T20:24:07.316Z,26.60
2022-12-08T20:29:10.388Z,20.60
2022-12-08T20:34:19.066Z,17.90
2022-12-08T20:39:22.044Z,22.20
2022-12-08T20:44:25.402Z,18.60
2022-12-08T20:49:34.198Z,19.10
2022-12-08T20:54:38.127Z,27.80
2022-12-08T20:59:41.230Z,20.60
2022-12-08T21:04:44.284Z,21.50
2022-12-08T21:09:47.844Z,20.70
2022-12-08T21:14:51.165Z,18.40
2022-12-08T21:19:54.292Z,19.40
2022-12-08T21:24:57.276Z,21.30
2022-12-08T21:30:00.349Z,28.40
2022-12-08T21:35:03.774Z,28.20
2022-12-08T21:40:08.708Z,26.90
2022-12-08T21:45:18.871Z,34.10
2022-12-08T21:50:22.136Z,24.90
2022-12-08T21:55:25.136Z,31.80
2022-12-08T22:00:28.596Z,38.10
2022-12-08T22:05:32.758Z,34.20
2022-12-08T22:10:35.989Z,28.60
2022-12-08T22:15:39.610Z,22.80
2022-12-08T22:20:44.376Z,23.00
2022-12-08T22:26:02.544Z,18.80
2022-12-08T22:31:21.196Z,21.20
2022-12-08T22:36:26.953Z,18.90
2022-12-08T22:41:30.056Z,19.40
2022-12-08T22:46:33.854Z,17.80
2022-12-08T22:51:37.716Z,21.10
2022-12-08T22:56:40.931Z,20.60
2022-12-08T23:01:44.149Z,23.70
2022-12-08T23:06:47.319Z,19.80
2022-12-08T23:11:50.574Z,20.80
2022-12-08T23:16:53.748Z,23.80
2022-12-08T23:21:56.947Z,21.00
2022-12-08T23:27:00.286Z,21.20
2022-12-08T23:32:03.903Z,26.40
2022-12-08T23:37:07.700Z,24.30
2022-12-08T23:42:11.138Z,21.20
2022-12-08T23:47:14.422Z,20.10
2022-12-08T23:52:17.717Z,20.50
2022-12-08T23:57:21.878Z,20.00
